La Salle, Canada
Current Conditions -  °F | °C
As of 3:00 PM on Tuesday 27 Jan 2015 (Local Time) from CYWG Reporting Station
Overcast Overcast  
Wind Chill: -9°   Ceiling: 10000
Heat Index: -2°   Visibility: 15mi
Dew Point: -3°   Wind: 20mph
Humidity: 93%   Direction: 170°S
Pressure: 29.94"   Gusts: NA
Location:  49.68°N, 97.27°W
Report Text: CYWG 272100Z 17017KT 15SM SCT007 OVC100 M02/M03 A2994 RMK SF3AC5 SLP154
Loading
Personal Weather Stations






























Interactive Weather Map New forecast layout! Learn more

10-Day Weather Forecast

Advertisements
Track Severe Weather on mobile